createdAt,value
2018-02-05T00:01:39.959Z,17.77
2018-02-05T00:04:45.261Z,17.93
2018-02-05T00:07:51.036Z,18.97
2018-02-05T00:10:56.438Z,18.10
2018-02-05T00:14:01.676Z,19.07
2018-02-05T00:17:07.543Z,17.93
2018-02-05T00:20:13.039Z,18.40
2018-02-05T00:23:18.430Z,17.60
2018-02-05T00:26:23.776Z,17.87
2018-02-05T00:29:30.247Z,16.13
2018-02-05T00:32:35.287Z,18.40
2018-02-05T00:35:40.658Z,16.50
2018-02-05T00:38:47.088Z,17.17
2018-02-05T00:41:52.634Z,17.73
2018-02-05T00:44:57.702Z,16.90
2018-02-05T00:48:02.566Z,17.20
2018-02-05T00:51:07.670Z,15.97
2018-02-05T00:54:13.331Z,16.33
2018-02-05T00:57:18.571Z,15.80
2018-02-05T01:00:23.843Z,16.30
2018-02-05T01:03:29.566Z,15.57
2018-02-05T01:06:35.470Z,16.53
2018-02-05T01:09:40.787Z,16.40
2018-02-05T01:12:46.406Z,18.33
2018-02-05T01:15:51.474Z,15.30
2018-02-05T01:18:56.862Z,15.90
2018-02-05T01:22:01.906Z,16.80
2018-02-05T01:25:08.323Z,17.73
2018-02-05T01:28:14.466Z,16.77
2018-02-05T01:31:20.842Z,17.93
2018-02-05T01:34:25.907Z,18.17
2018-02-05T01:37:31.133Z,16.37
2018-02-05T01:40:36.917Z,18.70
2018-02-05T01:43:42.607Z,18.03
2018-02-05T01:46:48.268Z,15.07
2018-02-05T01:49:53.738Z,17.33
2018-02-05T01:52:59.804Z,19.20
2018-02-05T01:56:05.015Z,16.33
2018-02-05T01:59:11.827Z,17.50
2018-02-05T02:02:17.210Z,17.93
2018-02-05T02:05:21.876Z,19.10
2018-02-05T02:08:27.127Z,20.07
2018-02-05T02:11:32.999Z,20.17
2018-02-05T02:14:37.786Z,20.07
2018-02-05T02:17:43.210Z,18.47
2018-02-05T02:20:48.520Z,19.50
2018-02-05T02:23:54.006Z,17.33
2018-02-05T02:26:59.685Z,17.37
2018-02-05T02:30:06.784Z,18.57
2018-02-05T02:33:12.817Z,17.17
2018-02-05T02:36:18.550Z,17.27
2018-02-05T02:39:23.984Z,17.40
2018-02-05T02:42:29.036Z,18.60
2018-02-05T02:45:34.339Z,18.27
2018-02-05T02:48:40.633Z,18.00
2018-02-05T02:51:46.300Z,20.10
2018-02-05T02:54:53.331Z,17.83
2018-02-05T02:57:58.563Z,18.70
2018-02-05T03:01:03.780Z,17.03
2018-02-05T03:04:08.924Z,17.23
2018-02-05T03:07:14.418Z,18.43
2018-02-05T03:10:20.051Z,18.87
2018-02-05T03:13:25.758Z,18.40
2018-02-05T03:16:31.900Z,18.90
2018-02-05T03:19:37.277Z,20.20
2018-02-05T03:22:42.587Z,18.43
2018-02-05T03:25:48.672Z,17.70
2018-02-05T03:28:54.105Z,17.67
2018-02-05T03:31:58.991Z,17.70
2018-02-05T03:35:06.710Z,19.17
2018-02-05T03:38:11.800Z,19.37
2018-02-05T03:41:17.428Z,18.80
2018-02-05T03:44:23.041Z,19.73
2018-02-05T03:47:28.781Z,20.20
2018-02-05T03:50:36.123Z,16.33
2018-02-05T03:53:41.934Z,16.03
2018-02-05T03:56:46.689Z,15.07
2018-02-05T03:59:51.613Z,15.30
2018-02-05T04:02:57.442Z,13.80
2018-02-05T04:06:02.476Z,15.13
2018-02-05T04:09:08.910Z,13.83
2018-02-05T04:12:13.686Z,16.00
2018-02-05T04:15:19.863Z,13.30
2018-02-05T04:18:27.322Z,15.27
2018-02-05T04:21:33.518Z,16.30
2018-02-05T04:24:39.663Z,16.43
2018-02-05T04:27:44.486Z,17.83
2018-02-05T04:30:50.526Z,18.87
2018-02-05T04:33:57.051Z,16.00
2018-02-05T04:37:02.518Z,17.30
2018-02-05T04:40:09.086Z,16.70
2018-02-05T04:43:14.054Z,17.20
2018-02-05T04:46:19.835Z,15.73
2018-02-05T04:49:25.192Z,16.30
2018-02-05T04:52:30.266Z,14.93
2018-02-05T04:55:36.677Z,16.23
2018-02-05T04:58:41.927Z,14.90
2018-02-05T05:01:47.354Z,15.33
2018-02-05T05:04:52.820Z,15.40
2018-02-05T05:07:58.285Z,13.53
2018-02-05T05:11:03.142Z,13.13
2018-02-05T05:14:08.370Z,14.37
2018-02-05T05:17:13.618Z,14.07
2018-02-05T05:20:18.610Z,14.47
2018-02-05T05:23:30.551Z,14.47
2018-02-05T05:26:36.619Z,14.80
2018-02-05T05:29:42.626Z,14.07
2018-02-05T05:32:51.361Z,18.10
2018-02-05T05:35:59.054Z,18.13
2018-02-05T05:39:04.806Z,19.20
2018-02-05T05:42:09.778Z,16.83
2018-02-05T05:45:16.328Z,19.83
2018-02-05T05:48:21.004Z,18.30
2018-02-05T05:51:27.298Z,18.77
2018-02-05T05:54:33.374Z,17.73
2018-02-05T05:57:38.802Z,16.93
2018-02-05T06:00:44.071Z,17.80
2018-02-05T06:03:49.227Z,15.30
2018-02-05T06:06:54.675Z,16.50
2018-02-05T06:09:59.975Z,14.73
2018-02-05T06:13:05.331Z,16.00
2018-02-05T06:16:11.568Z,15.33
2018-02-05T06:19:16.514Z,15.07
2018-02-05T06:22:22.023Z,14.27
2018-02-05T06:25:27.480Z,15.60
2018-02-05T06:28:33.035Z,15.93
2018-02-05T06:31:38.807Z,18.40
2018-02-05T06:34:44.507Z,17.10
2018-02-05T06:37:49.531Z,13.33
2018-02-05T06:40:54.975Z,17.73
2018-02-05T06:44:03.290Z,16.20
2018-02-05T06:47:09.226Z,14.20
2018-02-05T06:50:14.596Z,15.93
2018-02-05T06:53:32.319Z,15.07
2018-02-05T06:56:43.726Z,14.50
2018-02-05T06:59:48.323Z,15.20
2018-02-05T07:02:53.526Z,14.60
2018-02-05T07:05:58.947Z,15.43
2018-02-05T07:09:04.443Z,14.93
2018-02-05T07:12:10.187Z,14.80
2018-02-05T07:15:15.761Z,15.77
2018-02-05T07:18:21.955Z,15.50
2018-02-05T07:21:27.686Z,14.17
2018-02-05T07:24:32.589Z,15.80
2018-02-05T07:27:37.943Z,15.57
2018-02-05T07:30:43.463Z,14.50
2018-02-05T07:33:49.806Z,15.20
2018-02-05T07:36:55.601Z,14.97
2018-02-05T07:40:01.785Z,15.03
2018-02-05T07:43:07.146Z,15.53
2018-02-05T07:46:12.707Z,13.47
2018-02-05T07:49:18.066Z,14.83
2018-02-05T07:52:23.837Z,15.47
2018-02-05T07:55:29.407Z,14.07
2018-02-05T07:58:34.410Z,15.13
2018-02-05T08:01:40.063Z,14.60
2018-02-05T08:04:45.862Z,14.43
2018-02-05T08:07:51.390Z,13.50
2018-02-05T08:10:57.331Z,14.73
2018-02-05T08:14:02.687Z,13.90
2018-02-05T08:17:08.484Z,14.43
2018-02-05T08:20:13.584Z,12.83
2018-02-05T08:23:18.519Z,14.37
2018-02-05T08:26:24.480Z,12.87
2018-02-05T08:29:29.196Z,11.60
2018-02-05T08:32:35.144Z,13.93
2018-02-05T08:35:40.683Z,12.13
2018-02-05T08:38:45.999Z,14.83
2018-02-05T08:41:51.040Z,12.27
2018-02-05T08:44:57.178Z,14.27
2018-02-05T08:48:03.342Z,13.07
2018-02-05T08:51:09.679Z,16.00
2018-02-05T08:54:17.110Z,13.60
2018-02-05T08:57:22.108Z,12.30
2018-02-05T09:00:27.845Z,14.43
2018-02-05T09:03:33.591Z,14.17
2018-02-05T09:06:38.688Z,15.20
2018-02-05T09:09:45.221Z,12.47
2018-02-05T09:12:50.283Z,15.17
2018-02-05T09:15:56.226Z,13.67
2018-02-05T09:19:01.211Z,13.90
2018-02-05T09:22:06.619Z,15.00
2018-02-05T09:25:13.207Z,13.40
2018-02-05T09:28:18.781Z,12.60
2018-02-05T09:31:23.810Z,13.63
2018-02-05T09:34:29.530Z,14.10
2018-02-05T09:37:35.127Z,13.20
2018-02-05T09:40:40.774Z,12.33
2018-02-05T09:43:47.197Z,11.77
2018-02-05T09:46:52.251Z,13.07
2018-02-05T09:49:57.448Z,13.60
2018-02-05T09:53:02.803Z,11.60
2018-02-05T09:56:08.431Z,12.20
2018-02-05T09:59:13.593Z,13.70
2018-02-05T10:02:18.739Z,12.20
2018-02-05T10:05:24.038Z,12.20
2018-02-05T10:08:29.301Z,14.53
2018-02-05T10:11:34.962Z,14.03
2018-02-05T10:14:40.019Z,12.30
2018-02-05T10:17:45.222Z,12.77
2018-02-05T10:20:50.622Z,14.30
2018-02-05T10:23:56.074Z,14.70
2018-02-05T10:27:01.934Z,13.50
2018-02-05T10:30:07.390Z,12.77
2018-02-05T10:33:13.880Z,12.83
2018-02-05T10:36:18.514Z,12.47
2018-02-05T10:39:24.212Z,13.30
2018-02-05T10:42:30.176Z,12.23
2018-02-05T10:45:35.690Z,12.20
2018-02-05T10:48:40.410Z,11.33
2018-02-05T10:51:46.070Z,12.57
2018-02-05T10:54:51.726Z,11.83
2018-02-05T10:57:58.607Z,10.80
2018-02-05T11:01:03.293Z,13.17
2018-02-05T11:04:08.298Z,12.13
2018-02-05T11:07:13.734Z,12.37
2018-02-05T11:10:18.514Z,12.50
2018-02-05T11:13:23.619Z,11.60
2018-02-05T11:16:28.586Z,11.83
2018-02-05T11:19:33.633Z,12.53
2018-02-05T11:22:39.827Z,10.90
2018-02-05T11:25:45.512Z,13.33
2018-02-05T11:28:51.223Z,11.90
2018-02-05T11:31:56.072Z,13.60
2018-02-05T11:35:01.631Z,9.90
2018-02-05T11:38:06.630Z,12.90
2018-02-05T11:41:12.446Z,11.17
2018-02-05T11:44:17.625Z,11.17
2018-02-05T11:47:22.451Z,10.10
2018-02-05T11:50:27.848Z,11.57
2018-02-05T11:53:33.303Z,11.57
2018-02-05T11:56:41.259Z,10.00
2018-02-05T11:59:48.608Z,10.53
2018-02-05T12:02:53.676Z,10.13
2018-02-05T12:06:00.079Z,10.30
2018-02-05T12:09:07.103Z,10.10
2018-02-05T12:12:12.366Z,10.27
2018-02-05T12:15:19.615Z,8.90
2018-02-05T12:18:24.806Z,9.43
2018-02-05T12:21:30.733Z,10.33
2018-02-05T12:24:37.355Z,8.67
2018-02-05T12:27:42.518Z,10.13
2018-02-05T12:30:53.147Z,10.03
2018-02-05T12:33:58.843Z,9.40
2018-02-05T12:37:07.187Z,10.10
2018-02-05T12:40:12.644Z,9.27
2018-02-05T12:43:26.030Z,9.40
2018-02-05T12:46:31.703Z,9.50
2018-02-05T12:49:42.489Z,10.03
2018-02-05T12:52:48.578Z,9.77
2018-02-05T12:56:04.045Z,9.33
2018-02-05T12:59:15.131Z,10.97
2018-02-05T13:02:20.491Z,10.07
2018-02-05T13:05:29.645Z,9.70
2018-02-05T13:08:36.147Z,10.00
2018-02-05T13:11:42.526Z,9.40
2018-02-05T13:14:48.178Z,9.27
2018-02-05T13:17:53.743Z,9.47
2018-02-05T13:20:59.275Z,10.00
2018-02-05T13:24:04.874Z,9.60
2018-02-05T13:27:10.554Z,9.83
2018-02-05T13:30:16.065Z,9.90
2018-02-05T13:33:22.067Z,10.47
2018-02-05T13:36:28.895Z,9.63
2018-02-05T13:39:33.799Z,9.40
2018-02-05T13:42:39.349Z,10.20
2018-02-05T13:45:47.706Z,8.87
2018-02-05T13:48:52.618Z,9.53
2018-02-05T13:51:59.284Z,10.67
2018-02-05T13:55:04.061Z,8.67
2018-02-05T13:58:18.713Z,9.63
2018-02-05T14:01:25.289Z,10.17
2018-02-05T14:04:33.116Z,8.90
2018-02-05T14:07:39.730Z,9.17
2018-02-05T14:10:45.990Z,9.80
2018-02-05T14:13:52.281Z,8.70
2018-02-05T14:16:58.110Z,10.40
2018-02-05T14:20:03.731Z,10.37
2018-02-05T14:23:10.358Z,9.07
2018-02-05T14:26:15.237Z,8.60
2018-02-05T14:29:21.728Z,9.60
2018-02-05T14:32:27.545Z,9.50
2018-02-05T14:35:32.593Z,8.13
2018-02-05T14:38:37.414Z,7.87
2018-02-05T14:41:42.692Z,9.50
2018-02-05T14:44:48.182Z,8.40
2018-02-05T14:47:53.416Z,9.20
2018-02-05T14:51:00.013Z,8.53
2018-02-05T14:54:05.766Z,9.33
2018-02-05T14:57:11.163Z,10.33
2018-02-05T15:00:16.359Z,9.87
2018-02-05T15:03:22.277Z,10.57
2018-02-05T15:06:28.148Z,9.37
2018-02-05T15:09:34.039Z,8.87
2018-02-05T15:12:39.799Z,10.10
2018-02-05T15:15:45.344Z,10.67
2018-02-05T15:18:50.755Z,9.70
2018-02-05T15:21:56.063Z,11.67
2018-02-05T15:25:01.115Z,10.80
2018-02-05T15:28:06.510Z,10.43
2018-02-05T15:31:12.008Z,9.50
2018-02-05T15:34:17.011Z,10.93
2018-02-05T15:37:22.204Z,10.20
2018-02-05T15:40:27.775Z,9.00
2018-02-05T15:43:33.946Z,10.67
2018-02-05T15:46:40.234Z,9.50
2018-02-05T15:49:48.395Z,9.80
2018-02-05T15:52:53.310Z,10.20
2018-02-05T15:55:59.729Z,9.20
2018-02-05T15:59:06.127Z,10.50
2018-02-05T16:02:11.426Z,9.80
2018-02-05T16:05:16.898Z,10.10
2018-02-05T16:08:22.135Z,9.00
2018-02-05T16:11:27.305Z,8.73
2018-02-05T16:14:32.858Z,8.10
2018-02-05T16:17:38.839Z,10.93
2018-02-05T16:20:44.312Z,9.43
2018-02-05T16:23:49.531Z,8.53
2018-02-05T16:26:55.457Z,9.50
2018-02-05T16:30:01.695Z,9.50
2018-02-05T16:33:07.175Z,9.67
2018-02-05T16:36:13.299Z,9.57
2018-02-05T16:39:18.160Z,9.23
2018-02-05T16:42:23.917Z,8.90
2018-02-05T16:45:29.200Z,9.30
2018-02-05T16:48:35.549Z,9.63
2018-02-05T16:51:41.452Z,9.43
2018-02-05T16:54:46.775Z,9.03
2018-02-05T16:57:52.512Z,8.77
2018-02-05T17:00:58.174Z,9.30
2018-02-05T17:04:03.542Z,10.27
2018-02-05T17:07:09.226Z,9.93
2018-02-05T17:10:14.983Z,8.97
2018-02-05T17:13:21.226Z,9.57
2018-02-05T17:16:26.278Z,10.40
2018-02-05T17:19:31.691Z,8.57
2018-02-05T17:22:36.843Z,8.77
2018-02-05T17:25:41.691Z,10.40
2018-02-05T17:28:46.594Z,9.40
2018-02-05T17:31:51.854Z,9.70
2018-02-05T17:34:56.999Z,10.30
2018-02-05T17:38:02.081Z,9.50
2018-02-05T17:41:07.298Z,9.97
2018-02-05T17:44:12.344Z,9.27
2018-02-05T17:47:18.003Z,11.50
2018-02-05T17:50:23.747Z,8.63
2018-02-05T17:53:28.929Z,9.27
2018-02-05T17:56:34.926Z,8.47
2018-02-05T17:59:41.282Z,9.67
2018-02-05T18:02:46.418Z,9.50
2018-02-05T18:05:51.814Z,9.03
2018-02-05T18:08:56.883Z,9.47
2018-02-05T18:12:01.685Z,9.57
2018-02-05T18:15:06.664Z,9.67
2018-02-05T18:18:12.416Z,8.93
2018-02-05T18:21:20.668Z,10.07
2018-02-05T18:24:26.221Z,10.20
2018-02-05T18:27:32.014Z,8.93
2018-02-05T18:30:37.308Z,8.90
2018-02-05T18:34:02.337Z,9.27
2018-02-05T18:40:43.298Z,8.53
2018-02-05T18:43:48.978Z,9.33
2018-02-05T18:47:01.402Z,8.80
2018-02-05T18:50:06.388Z,9.27
2018-02-05T18:53:17.574Z,9.30
2018-02-05T18:56:40.827Z,7.90
2018-02-05T18:59:48.757Z,9.17
2018-02-05T19:03:00.338Z,8.83
2018-02-05T19:06:05.947Z,9.47
2018-02-05T19:09:11.863Z,7.63
2018-02-05T19:12:16.541Z,8.40
2018-02-05T19:15:21.927Z,8.57
2018-02-05T19:18:31.348Z,8.93
2018-02-05T19:21:36.316Z,8.60
2018-02-05T19:24:49.566Z,9.77
2018-02-05T19:27:55.179Z,8.90
2018-02-05T19:31:01.425Z,9.20
2018-02-05T19:34:08.257Z,8.23
2018-02-05T19:37:12.944Z,9.57
2018-02-05T19:40:18.522Z,9.10
2018-02-05T19:43:24.189Z,9.60
2018-02-05T19:46:38.987Z,9.10
2018-02-05T19:49:48.066Z,9.40
2018-02-05T19:52:53.165Z,9.03
2018-02-05T19:55:58.594Z,8.50
2018-02-05T19:59:03.850Z,8.57
2018-02-05T20:02:08.983Z,7.60
2018-02-05T20:05:14.359Z,7.27
2018-02-05T20:08:19.418Z,9.60
2018-02-05T20:11:25.934Z,9.13
2018-02-05T20:14:30.989Z,9.37
2018-02-05T20:17:36.770Z,8.73
2018-02-05T20:20:42.040Z,9.77
2018-02-05T20:23:49.909Z,9.53
2018-02-05T20:26:57.700Z,9.37
2018-02-05T20:30:03.399Z,8.73
2018-02-05T20:33:09.696Z,9.67
2018-02-05T20:36:20.563Z,9.20
2018-02-05T20:39:31.572Z,8.67
2018-02-05T20:42:38.122Z,9.27
2018-02-05T20:45:43.604Z,8.90
2018-02-05T20:48:50.349Z,9.27
2018-02-05T20:51:55.954Z,9.77
2018-02-05T20:55:08.500Z,9.27
2018-02-05T20:58:14.532Z,8.60
2018-02-05T21:01:19.561Z,8.57
2018-02-05T21:04:25.218Z,7.77
2018-02-05T21:07:30.265Z,8.97
2018-02-05T21:10:35.386Z,8.73
2018-02-05T21:13:40.806Z,10.00
2018-02-05T21:16:47.136Z,9.47
2018-02-05T21:19:52.709Z,9.23
2018-02-05T21:22:57.796Z,8.50
2018-02-05T21:26:03.565Z,9.57
2018-02-05T21:29:08.435Z,10.50
2018-02-05T21:32:13.994Z,7.43
2018-02-05T21:35:19.460Z,9.80
2018-02-05T21:38:24.580Z,9.53
2018-02-05T21:41:29.930Z,9.70
2018-02-05T21:44:37.147Z,9.47
2018-02-05T21:47:42.395Z,9.73
2018-02-05T21:50:47.571Z,9.70
2018-02-05T21:53:52.966Z,9.30
2018-02-05T21:56:59.402Z,9.63
2018-02-05T22:00:05.676Z,8.83
2018-02-05T22:03:10.554Z,8.13
2018-02-05T22:06:15.949Z,9.40
2018-02-05T22:09:21.507Z,9.00
2018-02-05T22:12:27.157Z,10.60
2018-02-05T22:15:32.913Z,9.60
2018-02-05T22:18:38.078Z,9.37
2018-02-05T22:21:43.652Z,9.60
2018-02-05T22:24:49.066Z,8.87
2018-02-05T22:27:54.907Z,10.00
2018-02-05T22:31:00.078Z,9.97
2018-02-05T22:34:04.963Z,10.10
2018-02-05T22:37:10.450Z,9.30
2018-02-05T22:40:15.674Z,8.73
2018-02-05T22:43:20.848Z,9.40
2018-02-05T22:46:26.211Z,10.40
2018-02-05T22:49:31.767Z,10.20
2018-02-05T22:52:38.065Z,9.73
2018-02-05T22:55:43.964Z,9.87
2018-02-05T22:58:50.098Z,8.07
2018-02-05T23:01:56.022Z,8.33
2018-02-05T23:05:01.035Z,8.57
2018-02-05T23:08:06.294Z,8.30
2018-02-05T23:11:11.671Z,9.60
2018-02-05T23:14:17.435Z,10.23
2018-02-05T23:17:24.028Z,9.47
2018-02-05T23:20:29.419Z,10.10
2018-02-05T23:23:35.142Z,9.40
2018-02-05T23:26:40.471Z,9.73
2018-02-05T23:29:46.195Z,10.47
2018-02-05T23:32:51.275Z,9.50
2018-02-05T23:35:56.633Z,8.77
2018-02-05T23:39:01.347Z,10.70
2018-02-05T23:42:07.761Z,9.30
2018-02-05T23:45:13.964Z,10.70
2018-02-05T23:48:19.279Z,11.07
2018-02-05T23:51:24.558Z,10.30
2018-02-05T23:54:29.403Z,11.10
2018-02-05T23:57:34.956Z,10.87
